Time;durP1;ratioP1;P1;durP2;ratioP2;P2;SDS_P1;SDS_P2;PMS_P1;PMS_P2;Temp;Humidity;BMP_temperature;BMP_pressure;BME280_temperature;BME280_humidity;BME280_pressure;Samples;Min_cycle;Max_cycle;Signal;HPM_P1;HPM_P2
2021/12/16 00:07:15;;;;;;;45.5;57.1;;;;;;;6.7;81;100100;;;;
2021/12/16 00:37:56;;;;;;;44.1;52.7;;;;;;;6.7;81;100080;;;;
2021/12/16 00:47:59;;;;;;;44.1;52.7;;;;;;;6.6;81.2;100070;;;;
2021/12/16 00:57:56;;;;;;;51.5;67.7;;;;;;;6.7;81.2;100070;;;;
2021/12/16 01:08:16;;;;;;;51.5;67.7;;;;;;;6.7;81.2;100080;;;;
2021/12/16 01:39:42;;;;;;;42.7;48.1;;;;;;;6.8;81.2;100050;;;;
2021/12/16 01:49:16;;;;;;;42.7;48.1;;;;;;;6.6;81.3;100040;;;;
2021/12/16 01:59:01;;;;;;;42.5;50.7;;;;;;;6.7;81.2;100010;;;;
2021/12/16 02:08:56;;;;;;;42.5;50.7;;;;;;;6.7;81.3;100000;;;;
2021/12/16 02:29:12;;;;;;;37.1;43.5;;;;;;;6.7;81.6;100000;;;;
2021/12/16 02:38:56;;;;;;;37.1;43.5;;;;;;;6.7;81.4;100000;;;;
2021/12/16 02:48:56;;;;;;;37.1;43.5;;;;;;;6.6;81.9;99990;;;;
2021/12/16 02:59:56;;;;;;;39.9;49.4;;;;;;;6.7;82.2;100000;;;;
2021/12/16 03:11:16;;;;;;;39.9;49.4;;;;;;;6.7;82.5;100000;;;;
2021/12/16 03:21:00;;;;;;;39.9;49.4;;;;;;;6.5;83;100000;;;;
2021/12/16 03:32:11;;;;;;;44.7;50.8;;;;;;;6.5;83.3;99990;;;;
2021/12/16 03:41:56;;;;;;;44.7;50.8;;;;;;;6.5;83.4;100000;;;;
2021/12/16 03:51:56;;;;;;;44.7;50.8;;;;;;;6.4;83.4;100010;;;;
2021/12/16 04:01:56;;;;;;;48.3;59.9;;;;;;;6.5;83.6;100020;;;;
2021/12/16 04:12:07;;;;;;;48.3;59.9;;;;;;;6.5;83.7;100020;;;;
2021/12/16 04:21:56;;;;;;;48.3;59.9;;;;;;;6.4;83.9;100030;;;;
2021/12/16 04:32:56;;;;;;;48.1;58.9;;;;;;;6.4;84.1;100030;;;;
2021/12/16 04:43:01;;;;;;;48.1;58.9;;;;;;;6.5;84.1;100030;;;;
2021/12/16 04:52:57;;;;;;;48.1;58.9;;;;;;;6.3;84.7;100030;;;;
2021/12/16 05:02:57;;;;;;;44.8;52.1;;;;;;;6.3;85.1;100040;;;;
2021/12/16 05:12:58;;;;;;;44.8;52.1;;;;;;;6.2;85.3;100030;;;;
2021/12/16 05:24:28;;;;;;;37.9;48.5;;;;;;;6.2;85.5;100050;;;;
2021/12/16 05:34:56;;;;;;;37.9;48.5;;;;;;;6.2;85.6;100060;;;;
2021/12/16 05:44:57;;;;;;;37.9;48.5;;;;;;;6.3;85.5;100060;;;;
2021/12/16 05:54:57;;;;;;;41.1;54.2;;;;;;;6.3;85.6;100070;;;;
2021/12/16 06:05:57;;;;;;;41.1;54.2;;;;;;;6.3;85.6;100070;;;;
2021/12/16 06:27:57;;;;;;;50.2;66.2;;;;;;;6.4;85;100070;;;;
2021/12/16 06:37:56;;;;;;;50.2;66.2;;;;;;;6.4;84.9;100080;;;;
2021/12/16 06:48:01;;;;;;;50.2;66.2;;;;;;;6.5;84.5;100080;;;;
2021/12/16 06:59:05;;;;;;;41.9;50.6;;;;;;;6.6;84.1;100080;;;;
2021/12/16 07:08:57;;;;;;;41.9;50.6;;;;;;;6.8;83.9;100080;;;;
2021/12/16 07:18:57;;;;;;;41.9;50.6;;;;;;;6.9;83.4;100080;;;;
2021/12/16 07:29:57;;;;;;;37.8;47.6;;;;;;;7;82.7;100070;;;;
2021/12/16 07:39:57;;;;;;;37.8;47.6;;;;;;;7;82.5;100060;;;;
2021/12/16 07:50:57;;;;;;;37.8;47.6;;;;;;;7.1;82.2;100060;;;;
2021/12/16 08:00:57;;;;;;;39;46.3;;;;;;;7.2;81.5;100060;;;;
2021/12/16 08:11:57;;;;;;;39;46.3;;;;;;;7.3;81.2;100060;;;;
2021/12/16 08:21:57;;;;;;;39;46.3;;;;;;;7.5;80.7;100060;;;;
2021/12/16 08:32:57;;;;;;;23.9;27.8;;;;;;;7.6;80.1;100080;;;;
2021/12/16 08:43:57;;;;;;;23.9;27.8;;;;;;;7.6;79.8;100080;;;;
2021/12/16 08:53:57;;;;;;;24;27.7;;;;;;;7.6;79.1;100070;;;;
2021/12/16 09:03:57;;;;;;;24;27.7;;;;;;;7.6;79;100060;;;;
2021/12/16 09:13:57;;;;;;;24;27.7;;;;;;;7.5;78.9;100060;;;;
2021/12/16 09:23:57;;;;;;;29.6;37.6;;;;;;;7.6;78.8;100060;;;;
2021/12/16 09:34:01;;;;;;;29.6;37.6;;;;;;;7.5;78.6;100050;;;;
2021/12/16 09:43:57;;;;;;;29.6;37.6;;;;;;;7.6;78.5;100060;;;;
2021/12/16 09:53:57;;;;;;;29.6;40.3;;;;;;;7.7;78.2;100050;;;;
2021/12/16 10:04:00;;;;;;;29.6;40.3;;;;;;;7.7;78.6;100030;;;;
2021/12/16 10:15:04;;;;;;;29.6;40.3;;;;;;;7.7;78.3;100010;;;;
2021/12/16 10:25:57;;;;;;;30.7;38.6;;;;;;;7.9;77.8;100010;;;;
2021/12/16 10:36:58;;;;;;;30.7;38.6;;;;;;;8.1;76.6;100000;;;;
2021/12/16 10:47:00;;;;;;;30.7;38.6;;;;;;;8.1;76.3;100000;;;;
2021/12/16 10:56:57;;;;;;;26.2;32.5;;;;;;;8.2;76.6;99990;;;;
2021/12/16 11:06:57;;;;;;;26.2;32.5;;;;;;;8.1;76.7;100000;;;;
2021/12/16 11:17:57;;;;;;;26.2;32.5;;;;;;;7.7;78.2;100000;;;;
2021/12/16 11:28:57;;;;;;;27.4;36.5;;;;;;;7.5;81;100000;;;;
2021/12/16 11:38:59;;;;;;;27.4;36.5;;;;;;;7.7;81.6;99990;;;;
2021/12/16 11:48:57;;;;;;;27.4;36.5;;;;;;;7.7;81.7;99980;;;;
2021/12/16 11:59:58;;;;;;;27.6;35.9;;;;;;;7.7;81.5;99980;;;;
2021/12/16 12:09:57;;;;;;;27.6;35.9;;;;;;;7.6;81.2;99990;;;;
2021/12/16 12:19:57;;;;;;;27.6;35.9;;;;;;;7.5;81.6;99980;;;;
2021/12/16 12:29:57;;;;;;;25.4;31.2;;;;;;;7.4;82.1;99990;;;;
2021/12/16 12:39:57;;;;;;;25.4;31.2;;;;;;;7.3;82.2;99990;;;;
2021/12/16 12:49:57;;;;;;;25.4;31.2;;;;;;;7.4;81.9;99980;;;;
2021/12/16 12:59:57;;;;;;;26.5;31;;;;;;;7.2;82.5;99990;;;;
2021/12/16 13:09:57;;;;;;;26.5;31;;;;;;;7.3;82.4;99990;;;;
2021/12/16 13:32:07;;;;;;;29.6;34.9;;;;;;;7.3;82.3;99980;;;;
2021/12/16 13:41:57;;;;;;;29.6;34.9;;;;;;;7.3;82.3;100000;;;;
2021/12/16 13:58:17;;;;;;;30.7;36.4;;;;;;;7.2;82.7;99970;;;;
2021/12/16 14:04:35;;;;;;;30.7;36.4;;;;;;;7.1;83.2;99990;;;;
2021/12/16 14:15:13;;;;;;;30.7;36.4;;;;;;;7.1;83.5;99930;;;;
2021/12/16 14:24:17;;;;;;;31.5;37.2;;;;;;;7.1;83.9;99980;;;;
2021/12/16 14:35:01;;;;;;;31.5;37.2;;;;;;;7;84;99990;;;;
2021/12/16 14:45:36;;;;;;;31.5;37.2;;;;;;;7;84.2;99980;;;;
2021/12/16 14:55:57;;;;;;;26.8;34.1;;;;;;;6.9;84.4;99990;;;;
2021/12/16 15:05:57;;;;;;;26.8;34.1;;;;;;;6.9;84.6;100000;;;;
2021/12/16 15:17:05;;;;;;;26.8;34.1;;;;;;;7;84.5;100000;;;;
2021/12/16 15:38:31;;;;;;;29.7;37.9;;;;;;;7;84.8;99990;;;;
2021/12/16 15:47:57;;;;;;;29.7;37.9;;;;;;;6.9;85.2;100010;;;;
2021/12/16 15:57:57;;;;;;;31.2;38.7;;;;;;;6.9;85.3;100010;;;;
2021/12/16 16:07:57;;;;;;;31.2;38.7;;;;;;;7;85;100030;;;;
2021/12/16 16:18:12;;;;;;;31.2;38.7;;;;;;;7.1;84.8;100040;;;;
2021/12/16 16:27:57;;;;;;;28.1;32.6;;;;;;;7.2;84.7;100060;;;;
2021/12/16 16:37:57;;;;;;;28.1;32.6;;;;;;;7.1;85;100080;;;;
2021/12/16 16:49:04;;;;;;;28.1;32.6;;;;;;;7.1;85.1;100080;;;;
2021/12/16 16:58:57;;;;;;;22.3;24.9;;;;;;;7.2;84.7;100080;;;;
2021/12/16 17:08:57;;;;;;;22.3;24.9;;;;;;;7.2;84.7;100080;;;;
2021/12/16 17:18:57;;;;;;;22.3;24.9;;;;;;;7.1;84.8;100080;;;;
2021/12/16 17:28:57;;;;;;;22;25.6;;;;;;;7.1;84.7;100080;;;;
2021/12/16 17:39:57;;;;;;;22;25.6;;;;;;;7.1;84.8;100080;;;;
2021/12/16 17:49:57;;;;;;;22;25.6;;;;;;;7.1;84.7;100090;;;;
2021/12/16 18:00:57;;;;;;;25.1;28.9;;;;;;;7.2;84.3;100100;;;;
2021/12/16 18:10:57;;;;;;;25.1;28.9;;;;;;;7.1;84.6;100110;;;;
2021/12/16 18:21:00;;;;;;;25.1;28.9;;;;;;;7.1;84.4;100130;;;;
2021/12/16 18:30:57;;;;;;;23.5;27.2;;;;;;;7.1;84.3;100140;;;;
2021/12/16 18:40:57;;;;;;;23.5;27.2;;;;;;;7.1;84.1;100160;;;;
2021/12/16 18:52:11;;;;;;;23.5;27.2;;;;;;;7.1;84;100150;;;;
2021/12/16 19:01:57;;;;;;;21.4;24.6;;;;;;;7;84;100160;;;;
2021/12/16 19:11:57;;;;;;;21.4;24.6;;;;;;;7;82.6;100140;;;;
2021/12/16 19:21:57;;;;;;;21.4;24.6;;;;;;;6.8;82.6;100120;;;;
2021/12/16 19:31:57;;;;;;;17;20.4;;;;;;;6.5;81.9;100150;;;;
2021/12/16 19:41:57;;;;;;;17;20.4;;;;;;;6.5;81.3;100170;;;;
2021/12/16 19:52:57;;;;;;;13.9;17.4;;;;;;;6.5;79.4;100200;;;;
2021/12/16 20:03:57;;;;;;;13.9;17.4;;;;;;;6.5;78.9;100210;;;;
2021/12/16 20:13:57;;;;;;;13.9;17.4;;;;;;;6.5;77.8;100210;;;;
2021/12/16 20:23:57;;;;;;;11;16.9;;;;;;;6.4;77.1;100200;;;;
2021/12/16 20:34:57;;;;;;;11;16.9;;;;;;;6.3;75.9;100190;;;;
2021/12/16 20:45:02;;;;;;;11;16.9;;;;;;;6.2;75.6;100190;;;;
2021/12/16 20:55:57;;;;;;;10.4;14.4;;;;;;;6.2;75.5;100190;;;;
2021/12/16 21:06:57;;;;;;;10.4;14.4;;;;;;;6.1;74.8;100170;;;;
2021/12/16 21:17:57;;;;;;;10.4;14.4;;;;;;;6.1;75;100170;;;;
2021/12/16 21:27:57;;;;;;;11;16;;;;;;;6;74.2;100170;;;;
2021/12/16 21:38:57;;;;;;;11;16;;;;;;;6;73.2;100170;;;;
2021/12/16 21:48:57;;;;;;;11;16;;;;;;;5.9;73.3;100170;;;;
2021/12/16 21:58:57;;;;;;;8.8;13.3;;;;;;;5.9;74.3;100150;;;;
2021/12/16 22:09:59;;;;;;;8.8;13.3;;;;;;;5.9;73.3;100140;;;;
2021/12/16 22:19:57;;;;;;;8.8;13.3;;;;;;;5.8;74.7;100120;;;;
2021/12/16 22:30:57;;;;;;;9.8;13.6;;;;;;;5.8;75.9;100100;;;;
2021/12/16 22:41:57;;;;;;;9.8;13.6;;;;;;;5.8;75.9;100100;;;;
2021/12/16 22:51:57;;;;;;;11.8;15.3;;;;;;;5.8;75.6;100080;;;;
2021/12/16 23:02:57;;;;;;;11.8;15.3;;;;;;;5.7;75.7;100080;;;;
